Time;durP1;ratioP1;P1;durP2;ratioP2;P2;SDS_P1;SDS_P2;PMS_P1;PMS_P2;Temp;Humidity;BMP_temperature;BMP_pressure;BME280_temperature;BME280_humidity;BME280_pressure;Samples;Min_cycle;Max_cycle;Signal;HPM_P1;HPM_P2
2022/03/09 00:01:40;;;;;;;27.73;13.72;;;;;;;-1.32;73.58;100372.41;1682526;82;21068;-65
2022/03/09 00:04:06;;;;;;;21.40;15.75;;;;;;;-1.29;73.57;100366.89;1692470;83;22377;-65
2022/03/09 00:06:33;;;;;;;25.10;14.70;;;;;;;-1.28;73.73;100371.63;1683318;84;21607;-65
2022/03/09 00:09:01;;;;;;;35.65;16.07;;;;;;;-1.28;73.71;100369.91;1678479;84;21057;-66
2022/03/09 00:11:27;;;;;;;35.78;15.00;;;;;;;-1.24;73.90;100361.41;1688669;83;21111;-65
2022/03/09 00:13:54;;;;;;;25.15;15.60;;;;;;;-1.20;73.95;100360.61;1683022;84;21016;-66
2022/03/09 00:16:21;;;;;;;18.50;13.50;;;;;;;-1.18;74.00;100358.90;1684806;83;21553;-66
2022/03/09 00:18:48;;;;;;;25.17;14.30;;;;;;;-1.18;73.92;100363.17;1679530;83;21634;-66
2022/03/09 00:21:15;;;;;;;21.57;16.15;;;;;;;-1.20;74.09;100360.61;1654782;85;21609;-66
2022/03/09 00:23:42;;;;;;;23.62;17.17;;;;;;;-1.16;74.25;100354.66;1694236;84;21013;-66
2022/03/09 00:26:08;;;;;;;25.50;16.23;;;;;;;-1.09;74.35;100353.04;1652995;85;22234;-66
2022/03/09 00:28:35;;;;;;;22.48;15.48;;;;;;;-1.01;74.50;100353.09;1676685;84;21142;-66
2022/03/09 00:31:03;;;;;;;23.63;14.90;;;;;;;-0.99;74.43;100348.84;1680178;84;21274;-66
2022/03/09 00:33:30;;;;;;;29.45;18.25;;;;;;;-1.01;74.41;100346.29;1680742;84;21080;-66
2022/03/09 00:35:56;;;;;;;25.43;17.40;;;;;;;-0.99;74.55;100347.56;1680806;83;21582;-66
2022/03/09 00:38:23;;;;;;;21.65;15.18;;;;;;;-1.06;74.57;100329.15;1679627;84;22545;-66
2022/03/09 00:40:50;;;;;;;21.57;14.65;;;;;;;-0.93;74.71;100351.03;1680766;84;22231;-66
2022/03/09 00:43:17;;;;;;;31.95;17.35;;;;;;;-0.97;74.65;100347.17;1677537;83;21109;-65
2022/03/09 00:45:44;;;;;;;22.85;15.30;;;;;;;-1.03;74.91;100347.12;1681017;83;21087;-66
2022/03/09 00:48:14;;;;;;;19.95;14.73;;;;;;;-1.05;75.00;100355.20;1679304;84;23595;-66
2022/03/09 00:50:41;;;;;;;26.27;13.68;;;;;;;-1.04;75.10;100358.19;1678814;83;20977;-66
2022/03/09 00:53:07;;;;;;;22.03;14.40;;;;;;;-1.06;75.13;100363.31;1679147;84;21140;-67
2022/03/09 00:55:34;;;;;;;20.13;14.43;;;;;;;-1.07;75.27;100364.57;1681073;83;21448;-66
2022/03/09 00:58:01;;;;;;;16.73;12.83;;;;;;;-1.07;75.37;100355.60;1677462;84;20977;-65
2022/03/09 01:00:27;;;;;;;22.93;14.63;;;;;;;-1.06;75.46;100359.91;1698963;83;20997;-66
2022/03/09 01:02:54;;;;;;;23.73;15.07;;;;;;;-1.06;75.56;100365.03;1697807;83;21123;-66
2022/03/09 01:05:20;;;;;;;26.30;13.33;;;;;;;-1.01;75.70;100371.92;1655820;84;20985;-66
2022/03/09 01:07:47;;;;;;;25.40;14.63;;;;;;;-0.96;75.75;100359.98;1700037;83;21634;-66
2022/03/09 01:10:14;;;;;;;30.37;15.03;;;;;;;-0.95;75.72;100373.69;1655551;85;21625;-66
2022/03/09 01:12:41;;;;;;;21.50;13.85;;;;;;;-0.91;75.89;100366.45;1692779;83;20996;-66
2022/03/09 01:15:09;;;;;;;21.15;14.53;;;;;;;-0.88;75.85;100372.03;1695384;84;21064;-66
2022/03/09 01:17:35;;;;;;;;;;;;;;;-0.85;75.89;100370.34;1660548;85;21617;-66
2022/03/09 01:20:03;;;;;;;18.62;13.75;;;;;;;-0.85;76.03;100367.78;1698619;83;21327;-66
2022/03/09 01:22:29;;;;;;;;;;;;;;;-0.84;76.02;100369.52;1700302;84;21131;-66
2022/03/09 01:24:56;;;;;;;18.90;14.57;;;;;;;-0.81;76.10;100372.11;1656952;85;20115;-66
2022/03/09 01:27:23;;;;;;;17.77;13.45;;;;;;;-0.84;76.06;100366.95;1654766;85;21072;-66
2022/03/09 01:29:49;;;;;;;19.50;14.15;;;;;;;-0.87;76.06;100374.59;1685911;82;21069;-66
2022/03/09 01:32:21;;;;;;;15.97;12.47;;;;;;;-0.86;76.23;100377.61;1699304;82;21697;-66
2022/03/09 01:34:48;;;;;;;17.40;12.40;;;;;;;-0.83;76.19;100376.36;1654953;85;21479;-66
2022/03/09 01:37:15;;;;;;;18.00;12.95;;;;;;;-0.83;76.23;100373.80;1695560;83;21020;-66
2022/03/09 01:39:41;;;;;;;29.23;15.20;;;;;;;-0.86;76.24;100368.64;1693855;83;21013;-66
2022/03/09 01:42:08;;;;;;;39.58;14.93;;;;;;;-0.84;76.52;100369.52;1697996;83;20993;-66
2022/03/09 01:44:35;;;;;;;17.87;13.10;;;;;;;-0.79;76.62;100370.39;1698469;83;21064;-67
2022/03/09 01:47:02;;;;;;;12.80;10.90;;;;;;;-0.80;76.37;100373.81;1654271;85;21085;-66
2022/03/09 01:49:29;;;;;;;17.15;12.95;;;;;;;-0.92;76.30;100376.28;1655556;83;26626;-66
2022/03/09 01:51:58;;;;;;;17.90;13.05;;;;;;;-1.04;76.41;100376.13;1679147;84;21029;-66
2022/03/09 01:54:25;;;;;;;23.30;13.35;;;;;;;-1.16;76.43;100379.00;1677619;82;20985;-66
2022/03/09 01:56:51;;;;;;;16.75;13.13;;;;;;;-1.24;76.59;100368.23;1673999;84;21078;-66
2022/03/09 01:59:19;;;;;;;21.03;13.63;;;;;;;-1.29;76.74;100365.61;1661350;85;20970;-66
2022/03/09 02:01:47;;;;;;;20.08;14.78;;;;;;;-1.31;76.92;100371.16;1658918;85;20921;-66
2022/03/09 02:04:14;;;;;;;18.45;13.00;;;;;;;-1.30;76.95;100369.03;1664087;85;21248;-66
2022/03/09 02:06:41;;;;;;;17.60;13.18;;;;;;;-1.31;77.36;100366.47;1662878;85;21566;-66
2022/03/09 02:11:56;;;;;;;16.07;12.07;;;;;;;-1.43;76.98;100360.76;1662575;84;21375;-66
2022/03/09 02:14:31;;;;;;;18.95;13.55;;;;;;;-1.44;77.08;100361.61;1664904;85;21017;-66
2022/03/09 02:17:01;;;;;;;17.10;13.10;;;;;;;-1.46;77.21;100359.45;1628913;87;21025;-67
2022/03/09 02:19:28;;;;;;;25.30;15.13;;;;;;;-1.42;77.30;100359.51;1663875;85;22567;-66
2022/03/09 02:22:06;;;;;;;16.20;12.65;;;;;;;-1.42;77.26;100362.50;1662645;85;21506;-67
2022/03/09 02:24:33;;;;;;;25.52;13.70;;;;;;;-1.39;77.42;100370.22;1663311;85;21039;-67
2022/03/09 02:27:00;;;;;;;19.02;14.00;;;;;;;-1.45;77.28;100376.55;1667492;85;21147;-67
2022/03/09 02:29:27;;;;;;;17.90;13.85;;;;;;;-1.45;77.43;100370.15;1664718;85;20954;-66
2022/03/09 02:31:54;;;;;;;21.52;14.18;;;;;;;-1.41;77.53;100368.05;1658087;85;21081;-67
2022/03/09 02:34:20;;;;;;;17.40;12.85;;;;;;;-1.38;77.56;100365.52;1656311;85;21051;-67
2022/03/09 02:36:48;;;;;;;28.12;15.25;;;;;;;-1.38;77.52;100373.20;1656140;85;21118;-67
2022/03/09 02:39:16;;;;;;;;;;;;;;;-1.39;77.61;100371.06;1657975;85;20977;-67
2022/03/09 02:41:43;;;;;;;24.63;14.75;;;;;;;-1.39;77.63;100379.18;1663017;85;20137;-67
2022/03/09 02:44:32;;;;;;;20.70;14.60;;;;;;;-1.41;77.66;100385.98;1665693;85;21048;-66
2022/03/09 02:46:59;;;;;;;17.60;13.25;;;;;;;-1.41;77.76;100387.26;1592647;88;22437;-66
2022/03/09 02:49:26;;;;;;;23.22;15.53;;;;;;;-1.45;77.80;100389.36;1616839;87;28315;-66
2022/03/09 02:51:53;;;;;;;21.00;15.27;;;;;;;-1.53;77.91;100382.00;1617450;87;21110;-66
2022/03/09 02:54:20;;;;;;;21.82;15.48;;;;;;;-1.57;77.99;100386.20;1615320;87;21665;-66
2022/03/09 02:56:47;;;;;;;19.60;13.77;;;;;;;-1.61;78.04;100381.47;1617951;87;21036;-66
2022/03/09 02:59:13;;;;;;;19.12;14.68;;;;;;;-1.61;78.17;100387.88;1598169;88;21437;-66
2022/03/09 03:01:40;;;;;;;21.85;15.15;;;;;;;-1.64;78.22;100389.12;1615819;87;21059;-66
2022/03/09 03:04:07;;;;;;;20.13;14.53;;;;;;;-1.67;78.40;100383.11;1616412;87;21032;-66
2022/03/09 03:06:34;;;;;;;18.80;13.83;;;;;;;-1.68;78.45;100378.41;1588678;88;21614;-66
2022/03/09 03:09:02;;;;;;;19.50;14.53;;;;;;;-1.60;78.63;100379.77;1617133;87;21056;-66
2022/03/09 03:11:29;;;;;;;23.85;15.63;;;;;;;-1.61;78.43;100384.03;1615658;87;21132;-66
2022/03/09 03:13:56;;;;;;;21.03;15.53;;;;;;;-1.62;78.50;100387.44;1616564;87;21096;-66
2022/03/09 03:16:28;;;;;;;21.10;14.93;;;;;;;-1.62;78.55;100390.00;1615002;87;21687;-66
2022/03/09 03:18:55;;;;;;;32.50;16.12;;;;;;;-1.60;78.62;100388.33;1616853;87;21041;-66
2022/03/09 03:21:22;;;;;;;24.27;16.43;;;;;;;-1.60;78.61;100390.89;1598856;88;21551;-66
2022/03/09 03:23:49;;;;;;;18.35;13.72;;;;;;;-1.58;78.71;100401.99;1617228;87;21488;-66
2022/03/09 03:26:15;;;;;;;23.07;15.23;;;;;;;-1.53;78.75;100405.05;1616628;87;20967;-66
2022/03/09 03:28:44;;;;;;;25.08;15.83;;;;;;;-1.53;78.75;100402.48;1611677;87;21090;-66
2022/03/09 03:31:10;;;;;;;21.40;16.05;;;;;;;-1.47;78.95;100403.84;1599076;88;21535;-66
2022/03/09 03:33:37;;;;;;;22.90;16.15;;;;;;;-1.40;78.98;100415.86;1616796;87;21039;-66
2022/03/09 03:36:04;;;;;;;24.90;17.48;;;;;;;-1.41;78.84;100417.57;1618869;87;21460;-66
2022/03/09 03:38:31;;;;;;;22.87;14.05;;;;;;;-1.42;78.92;100420.13;1614507;87;21027;-67
2022/03/09 03:40:58;;;;;;;27.33;17.77;;;;;;;-1.40;78.97;100426.11;1616734;87;20987;-66
2022/03/09 03:43:24;;;;;;;26.63;16.47;;;;;;;-1.43;78.96;100426.08;1615629;87;21141;-66
2022/03/09 03:45:51;;;;;;;26.75;14.93;;;;;;;-1.41;79.02;100425.69;1620349;86;21040;-66
2022/03/09 03:48:21;;;;;;;23.87;17.47;;;;;;;-1.44;79.06;100429.48;1622798;87;21109;-66
2022/03/09 03:50:49;;;;;;;26.35;17.23;;;;;;;-1.42;79.18;100425.25;1622894;87;21055;-66
2022/03/09 03:53:16;;;;;;;25.32;17.12;;;;;;;-1.38;79.31;100427.00;1630670;86;21041;-66
2022/03/09 03:55:44;;;;;;;29.02;19.52;;;;;;;-1.32;79.39;100429.63;1623112;86;20977;-66
2022/03/09 03:58:12;;;;;;;24.92;16.60;;;;;;;-1.25;79.49;100430.59;1613047;88;21139;-67
2022/03/09 04:00:39;;;;;;;25.60;17.05;;;;;;;-1.23;79.37;100432.33;1616276;87;21088;-66
2022/03/09 04:03:05;;;;;;;25.52;15.80;;;;;;;-1.21;79.44;100435.75;1631870;86;21547;-66
2022/03/09 04:05:32;;;;;;;20.92;14.35;;;;;;;-1.21;79.39;100433.61;1625252;87;21032;-66
2022/03/09 04:07:59;;;;;;;24.63;16.62;;;;;;;-1.22;79.37;100437.02;1622963;86;21128;-66
2022/03/09 04:10:26;;;;;;;26.23;17.32;;;;;;;-1.25;79.40;100437.84;1615588;88;21647;-66
2022/03/09 04:12:52;;;;;;;22.55;16.07;;;;;;;-1.26;79.43;100439.98;1627675;86;21149;-66
2022/03/09 04:15:19;;;;;;;31.05;17.37;;;;;;;-1.31;79.41;100440.34;1623980;87;21104;-66
2022/03/09 04:17:47;;;;;;;26.90;18.70;;;;;;;-1.33;79.57;100438.17;1622741;86;21021;-66
2022/03/09 04:20:15;;;;;;;24.15;17.95;;;;;;;-1.31;79.66;100446.74;1622755;87;21036;-66
2022/03/09 04:22:43;;;;;;;24.07;15.72;;;;;;;-1.34;79.62;100439.02;1623364;86;20977;-66
2022/03/09 04:25:11;;;;;;;26.57;16.27;;;;;;;-1.37;79.69;100447.95;1613561;87;21111;-66
2022/03/09 04:27:38;;;;;;;25.77;14.07;;;;;;;-1.43;79.82;100438.88;1625062;86;21068;-66
2022/03/09 04:30:07;;;;;;;21.55;16.12;;;;;;;-1.46;79.79;100435.86;1617680;87;21317;-66
2022/03/09 04:32:34;;;;;;;28.17;15.58;;;;;;;-1.51;79.92;100436.64;1616544;88;21045;-66
2022/03/09 04:35:05;;;;;;;21.93;15.65;;;;;;;-1.49;80.03;100441.38;1595525;89;21546;-66
2022/03/09 04:37:33;;;;;;;29.72;17.12;;;;;;;-1.48;80.14;100434.15;1615615;87;21647;-66
2022/03/09 04:40:01;;;;;;;18.45;13.65;;;;;;;-1.52;80.14;100431.09;1617613;87;21049;-66
2022/03/09 04:42:28;;;;;;;18.00;12.33;;;;;;;-1.47;80.24;100433.30;1628956;87;20997;-66
2022/03/09 04:44:55;;;;;;;20.37;13.78;;;;;;;-1.45;80.31;100443.16;1617483;87;21066;-66
2022/03/09 04:47:22;;;;;;;18.17;13.93;;;;;;;-1.51;80.19;100448.16;1620988;85;21116;-67
2022/03/09 04:49:51;;;;;;;20.27;14.70;;;;;;;-1.54;80.18;100445.56;1619396;86;21217;-66
2022/03/09 04:52:19;;;;;;;27.65;14.60;;;;;;;-1.59;80.29;100446.38;1619063;86;21021;-68
2022/03/09 04:54:46;;;;;;;22.17;14.55;;;;;;;-1.63;80.33;100449.72;1593298;88;21061;-67
2022/03/09 04:57:13;;;;;;;23.18;14.95;;;;;;;-1.68;80.52;100441.14;1619822;86;21683;-66
2022/03/09 04:59:40;;;;;;;17.45;12.68;;;;;;;-1.72;80.55;100439.36;1595889;88;21056;-67
2022/03/09 05:02:07;;;;;;;26.75;16.00;;;;;;;-1.71;80.55;100442.78;1590864;88;21131;-66
2022/03/09 05:04:33;;;;;;;21.10;14.55;;;;;;;-1.75;80.62;100443.16;1619922;86;21044;-67
2022/03/09 05:07:00;;;;;;;19.65;15.00;;;;;;;-1.73;80.68;100435.09;1599432;88;21568;-66
2022/03/09 05:09:27;;;;;;;23.60;14.03;;;;;;;-1.72;80.62;100440.64;1623104;86;21141;-66
2022/03/09 05:11:54;;;;;;;25.27;14.60;;;;;;;-1.73;80.81;100444.48;1594876;88;21593;-66
2022/03/09 05:14:20;;;;;;;20.43;14.30;;;;;;;-1.73;80.73;100452.16;1584834;88;21164;-66
2022/03/09 05:16:47;;;;;;;21.20;14.60;;;;;;;-1.74;80.69;100439.75;1617806;86;21570;-66
2022/03/09 05:19:14;;;;;;;20.85;13.18;;;;;;;-1.77;81.12;100449.95;1612712;87;21048;-66
2022/03/09 05:21:41;;;;;;;27.32;15.60;;;;;;;-1.86;81.00;100449.40;1610383;88;21054;-66
2022/03/09 05:24:11;;;;;;;24.37;15.58;;;;;;;-1.88;80.88;100448.94;1611226;87;21058;-66
2022/03/09 05:26:38;;;;;;;18.30;13.70;;;;;;;-1.86;81.06;100453.66;1613227;87;22328;-67
2022/03/09 05:29:05;;;;;;;20.43;14.47;;;;;;;-1.88;81.08;100454.05;1610592;87;21120;-67
2022/03/09 05:31:31;;;;;;;22.23;13.67;;;;;;;-1.87;81.16;100454.52;1621811;86;21104;-67
2022/03/09 05:33:58;;;;;;;17.25;13.25;;;;;;;-1.87;81.13;100446.84;1618489;87;21117;-67
2022/03/09 05:36:25;;;;;;;22.15;16.45;;;;;;;-1.88;81.18;100452.77;1612319;87;21039;-66
2022/03/09 05:38:52;;;;;;;21.27;15.78;;;;;;;-1.85;81.30;100448.97;1612431;87;21272;-66
2022/03/09 05:41:21;;;;;;;23.87;15.97;;;;;;;-1.81;81.26;100446.92;1609273;87;21112;-66
2022/03/09 05:43:49;;;;;;;21.68;14.38;;;;;;;-1.78;81.27;100449.52;1604270;88;21034;-66
2022/03/09 05:46:17;;;;;;;19.15;13.62;;;;;;;-1.78;81.22;100452.08;1606030;87;21103;-65
2022/03/09 05:48:43;;;;;;;18.52;12.90;;;;;;;-1.75;81.28;100447.00;1646656;85;20980;-66
2022/03/09 05:51:11;;;;;;;19.97;13.33;;;;;;;-1.71;81.37;100455.19;1631654;86;21197;-66
2022/03/09 05:53:39;;;;;;;20.00;13.78;;;;;;;-1.76;81.14;100442.73;1640981;85;21001;-66
2022/03/09 05:56:07;;;;;;;19.17;13.95;;;;;;;-1.74;81.24;100446.15;1636483;85;21526;-67
2022/03/09 05:58:34;;;;;;;25.65;15.65;;;;;;;-1.71;81.35;100448.78;1646387;85;21875;-66
2022/03/09 06:01:01;;;;;;;23.27;15.48;;;;;;;-1.67;81.37;100455.66;1639702;85;25551;-66
2022/03/09 06:03:28;;;;;;;24.15;13.90;;;;;;;-1.59;81.55;100457.05;1613823;87;21005;-66
2022/03/09 06:05:54;;;;;;;21.17;13.93;;;;;;;-1.47;81.69;100467.87;1636191;85;21036;-66
2022/03/09 06:08:21;;;;;;;24.12;14.98;;;;;;;-1.46;81.36;100465.73;1636603;85;21860;-66
2022/03/09 06:10:48;;;;;;;16.17;12.10;;;;;;;-1.45;81.47;100463.22;1638321;85;21004;-66
2022/03/09 06:13:14;;;;;;;20.10;14.13;;;;;;;-1.41;81.28;100465.39;1640483;85;21110;-66
2022/03/09 06:15:41;;;;;;;20.47;14.37;;;;;;;-1.49;81.20;100472.11;1635779;85;21129;-67
2022/03/09 06:18:08;;;;;;;14.53;11.08;;;;;;;-1.45;81.47;100468.34;1636590;85;21029;-67
2022/03/09 06:20:35;;;;;;;15.90;11.10;;;;;;;-1.36;81.58;100472.72;1637287;85;21149;-67
2022/03/09 06:23:03;;;;;;;17.95;13.10;;;;;;;-1.40;81.31;100480.80;1645305;85;21062;-66
2022/03/09 06:25:30;;;;;;;17.07;13.18;;;;;;;-1.41;81.34;100483.32;1641602;85;20986;-66
2022/03/09 06:27:58;;;;;;;14.43;10.58;;;;;;;-1.43;81.61;100478.59;1639103;85;21110;-66
2022/03/09 06:30:25;;;;;;;17.55;11.85;;;;;;;-1.41;81.89;100482.04;1609477;87;21124;-66
2022/03/09 06:32:52;;;;;;;18.92;12.65;;;;;;;-1.46;81.61;100481.97;1643965;85;21110;-66
2022/03/09 06:35:19;;;;;;;18.07;12.60;;;;;;;-1.43;81.71;100488.44;1634930;85;21602;-66
2022/03/09 06:37:47;;;;;;;16.20;11.68;;;;;;;-1.33;81.86;100489.41;1645861;85;21203;-67
2022/03/09 06:40:16;;;;;;;16.93;11.05;;;;;;;-1.18;82.08;100480.63;1638080;85;21206;-67
2022/03/09 06:42:43;;;;;;;17.65;12.43;;;;;;;-1.10;81.85;100488.84;1610175;87;21535;-67
2022/03/09 06:45:10;;;;;;;16.73;12.10;;;;;;;-1.03;81.92;100478.69;1636288;85;20957;-66
2022/03/09 06:47:38;;;;;;;18.45;11.95;;;;;;;-1.01;81.53;100483.81;1633462;86;21033;-68
2022/03/09 06:50:09;;;;;;;18.52;11.08;;;;;;;-0.96;81.84;100489.86;1630981;86;21089;-65
2022/03/09 06:52:37;;;;;;;28.77;12.03;;;;;;;-0.80;81.98;100491.77;1629407;86;21524;-68
2022/03/09 06:55:08;;;;;;;26.73;12.85;;;;;;;-0.69;82.04;100481.20;1631679;86;21068;-67
2022/03/09 06:57:36;;;;;;;15.38;11.18;;;;;;;-0.54;82.12;100492.03;1627623;86;21038;-65
2022/03/09 07:00:11;;;;;;;13.28;10.40;;;;;;;-0.40;82.03;100490.89;1642098;85;21582;-65
2022/03/09 07:02:39;;;;;;;17.90;11.75;;;;;;;-0.42;81.65;100491.33;1637558;85;21083;-68
2022/03/09 07:05:08;;;;;;;16.60;10.55;;;;;;;-0.51;81.38;100483.52;1638434;85;21780;-68
2022/03/09 07:07:37;;;;;;;20.32;11.80;;;;;;;-0.63;81.25;100491.09;1638443;85;21637;-68
2022/03/09 07:10:10;;;;;;;15.60;10.40;;;;;;;-0.73;81.54;100484.59;1609214;87;21085;-67
2022/03/09 07:12:35;;;;;;;13.90;10.43;;;;;;;-0.72;81.58;100485.02;1638732;85;21608;-67
2022/03/09 07:15:02;;;;;;;17.48;11.70;;;;;;;-0.71;81.63;100491.00;1634781;86;21634;-67
2022/03/09 07:17:29;;;;;;;17.00;12.68;;;;;;;-0.62;81.90;100492.80;1630460;86;21131;-69
2022/03/09 07:19:56;;;;;;;17.35;10.38;;;;;;;-0.49;82.04;100487.81;1634049;86;21050;-70
2022/03/09 07:22:24;;;;;;;21.48;13.98;;;;;;;-0.26;82.28;100488.03;1640101;85;21048;-68
2022/03/09 07:24:51;;;;;;;22.10;14.58;;;;;;;-0.14;81.96;100487.70;1619714;87;21645;-68
2022/03/09 07:27:18;;;;;;;23.45;15.53;;;;;;;0.08;82.14;100501.14;1628667;86;21093;-66
2022/03/09 07:29:45;;;;;;;23.25;14.13;;;;;;;0.01;81.42;100500.67;1611255;87;21095;-66
2022/03/09 07:32:14;;;;;;;18.70;14.43;;;;;;;0.02;81.68;100498.53;1621174;86;21081;-65
2022/03/09 07:34:42;;;;;;;26.33;14.93;;;;;;;0.05;81.53;100501.13;1644984;85;20954;-66
2022/03/09 07:37:11;;;;;;;20.15;12.03;;;;;;;0.05;81.87;100513.96;1637701;85;21116;-66
2022/03/09 07:39:38;;;;;;;24.30;11.88;;;;;;;0.24;82.25;100503.84;1631705;86;21059;-70
2022/03/09 07:42:06;;;;;;;;;;;;;;;0.50;82.61;100516.86;1648659;85;21620;-66
2022/03/09 07:44:33;;;;;;;17.00;12.20;;;;;;;0.77;82.67;100516.17;1645067;85;20203;-64
2022/03/09 07:47:01;;;;;;;16.27;13.05;;;;;;;0.78;81.74;100515.31;1619903;87;26610;-66
2022/03/09 07:49:37;;;;;;;14.10;11.40;;;;;;;0.79;81.75;100518.33;1609052;86;21081;-65
2022/03/09 07:52:03;;;;;;;16.65;12.03;;;;;;;0.81;81.82;100523.03;1635345;85;21033;-67
2022/03/09 07:54:37;;;;;;;21.57;11.75;;;;;;;0.87;81.84;100521.38;1637870;85;21160;-67
2022/03/09 07:57:04;;;;;;;24.63;12.63;;;;;;;0.90;81.51;100517.96;1610485;87;21676;-66
2022/03/09 07:59:31;;;;;;;22.45;12.15;;;;;;;0.97;82.04;100518.41;1629997;86;21566;-66
2022/03/09 08:01:57;;;;;;;24.23;13.72;;;;;;;1.10;81.93;100518.90;1642059;85;20936;-66
2022/03/09 08:04:25;;;;;;;23.47;12.03;;;;;;;1.19;82.26;100519.79;1617758;86;21094;-66
2022/03/09 08:06:53;;;;;;;16.75;11.18;;;;;;;1.43;82.53;100527.59;1643960;85;21263;-67
2022/03/09 08:09:20;;;;;;;24.27;12.78;;;;;;;1.36;81.55;100532.28;1609120;87;20961;-67
2022/03/09 08:11:48;;;;;;;16.37;11.73;;;;;;;1.31;81.88;100522.39;1640393;85;20942;-66
2022/03/09 08:14:16;;;;;;;19.45;11.75;;;;;;;1.48;82.66;100528.44;1639855;85;21056;-65
2022/03/09 08:16:43;;;;;;;31.65;12.47;;;;;;;1.63;82.26;100529.36;1631458;86;21068;-66
2022/03/09 08:19:10;;;;;;;15.70;12.33;;;;;;;1.86;82.82;100525.09;1631300;86;21496;-65
2022/03/09 08:21:37;;;;;;;17.02;12.28;;;;;;;2.30;83.41;100521.67;1631950;86;20952;-66
2022/03/09 08:24:06;;;;;;;18.15;13.28;;;;;;;2.57;82.37;100521.20;1645902;85;21084;-65
2022/03/09 08:26:33;;;;;;;19.82;13.32;;;;;;;2.46;81.52;100525.96;1638456;85;20981;-65
2022/03/09 08:29:01;;;;;;;20.20;13.20;;;;;;;2.51;82.14;100528.95;1612075;87;21080;-65
2022/03/09 08:31:29;;;;;;;;;;;;;;;2.69;82.22;100525.91;1643432;85;21119;-64
2022/03/09 08:33:59;;;;;;;18.23;12.55;;;;;;;2.83;81.99;100524.59;1629821;85;20543;-65
2022/03/09 08:36:25;;;;;;;;;;;;;;;2.62;81.14;100523.34;1625544;87;20995;-65
2022/03/09 08:38:53;;;;;;;15.18;11.50;;;;;;;2.64;81.33;100529.36;1629127;86;20253;-65
2022/03/09 08:41:30;;;;;;;21.07;15.03;;;;;;;2.48;81.59;100525.94;1634063;85;21623;-65
2022/03/09 08:44:16;;;;;;;19.82;13.65;;;;;;;2.51;81.42;100527.66;1628584;86;21136;-65
2022/03/09 08:46:44;;;;;;;22.35;12.73;;;;;;;2.34;80.90;100530.26;1641274;85;21543;-64
2022/03/09 08:49:15;;;;;;;18.12;12.85;;;;;;;2.30;81.72;100528.13;1627499;85;20993;-65
2022/03/09 08:51:42;;;;;;;21.12;12.40;;;;;;;2.28;81.66;100523.39;1660319;85;21071;-66
2022/03/09 08:54:08;;;;;;;21.02;14.73;;;;;;;2.45;82.49;100534.53;1644945;86;21081;-67
2022/03/09 08:56:37;;;;;;;19.52;13.45;;;;;;;2.58;82.66;100535.83;1630772;86;21023;-66
2022/03/09 08:59:04;;;;;;;18.37;13.35;;;;;;;2.83;83.07;100528.46;1650342;84;21650;-66
2022/03/09 09:01:31;;;;;;;18.13;12.37;;;;;;;3.15;83.08;100523.61;1650047;85;21056;-67
2022/03/09 09:03:59;;;;;;;18.90;13.48;;;;;;;3.50;83.18;100529.02;1656555;85;21783;-66
2022/03/09 09:06:26;;;;;;;19.17;13.65;;;;;;;3.32;81.11;100529.55;1653688;85;21046;-66
2022/03/09 09:08:53;;;;;;;19.12;12.60;;;;;;;3.10;81.51;100531.80;1651573;86;21109;-66
2022/03/09 09:11:20;;;;;;;21.85;13.95;;;;;;;3.17;81.95;100539.95;1653483;85;21014;-66
2022/03/09 09:13:47;;;;;;;21.87;13.73;;;;;;;3.02;81.62;100546.44;1654078;85;21583;-66
2022/03/09 09:16:14;;;;;;;17.85;13.15;;;;;;;2.99;82.19;100555.48;1656153;85;21045;-66
2022/03/09 09:18:43;;;;;;;18.27;13.32;;;;;;;3.10;82.42;100550.71;1653147;85;21026;-67
2022/03/09 09:21:10;;;;;;;20.43;14.53;;;;;;;3.03;81.88;100566.24;1649255;85;21284;-66
2022/03/09 09:23:38;;;;;;;17.52;13.08;;;;;;;2.91;81.94;100556.79;1650239;84;21131;-66
2022/03/09 09:26:07;;;;;;;18.92;12.47;;;;;;;2.86;81.73;100559.40;1626983;86;21025;-66
2022/03/09 09:28:34;;;;;;;19.50;13.78;;;;;;;2.81;81.61;100562.41;1656832;85;21080;-68
2022/03/09 09:31:01;;;;;;;21.15;14.05;;;;;;;2.68;81.78;100556.84;1652537;85;21371;-66
2022/03/09 09:33:27;;;;;;;26.03;14.60;;;;;;;2.79;82.45;100556.39;1651533;85;21447;-67
2022/03/09 09:35:54;;;;;;;19.32;13.60;;;;;;;2.93;82.47;100559.37;1653569;85;21125;-67
2022/03/09 09:38:20;;;;;;;19.07;13.00;;;;;;;3.04;82.49;100558.48;1655937;85;21140;-67
2022/03/09 09:40:48;;;;;;;17.43;13.10;;;;;;;3.26;82.72;100554.10;1650803;85;20991;-68
2022/03/09 09:43:16;;;;;;;17.23;12.47;;;;;;;3.27;82.12;100550.64;1649349;85;21276;-68
2022/03/09 09:45:44;;;;;;;18.30;12.78;;;;;;;3.27;81.80;100553.23;1653728;85;21576;-68
2022/03/09 09:48:12;;;;;;;21.00;12.65;;;;;;;3.20;81.38;100554.14;1663585;85;20938;-67
2022/03/09 09:50:41;;;;;;;20.40;12.18;;;;;;;3.20;81.73;100551.55;1647281;85;21159;-67
2022/03/09 09:53:12;;;;;;;22.32;11.38;;;;;;;3.32;82.15;100554.07;1654833;85;21684;-67
2022/03/09 09:55:43;;;;;;;20.75;12.50;;;;;;;3.47;81.87;100560.02;1659665;85;21025;-67
2022/03/09 09:58:11;;;;;;;17.15;11.57;;;;;;;3.65;82.48;100554.78;1624117;86;21076;-66
2022/03/09 10:00:39;;;;;;;;;;;;;;;3.73;81.79;100553.02;1664678;85;21510;-66
2022/03/09 10:03:06;;;;;;;16.93;11.30;;;;;;;3.76;81.04;100562.47;1632177;86;20249;-67
2022/03/09 10:05:34;;;;;;;19.40;12.20;;;;;;;3.73;80.68;100555.59;1630006;86;21171;-67
2022/03/09 10:08:13;;;;;;;16.55;10.98;;;;;;;3.73;81.21;100565.92;1652988;84;21550;-67
2022/03/09 10:10:44;;;;;;;16.07;11.20;;;;;;;3.84;81.38;100566.27;1658903;84;21744;-67
2022/03/09 10:13:22;;;;;;;15.98;9.93;;;;;;;3.96;81.29;100570.94;1660430;84;21617;-68
2022/03/09 10:16:10;;;;;;;14.45;10.30;;;;;;;4.01;80.92;100582.11;1653576;84;21190;-66
2022/03/09 10:18:38;;;;;;;17.20;10.45;;;;;;;4.06;80.67;100589.81;1657429;84;21044;-66
2022/03/09 10:21:15;;;;;;;17.48;12.18;;;;;;;4.16;80.76;100584.16;1657920;84;20971;-67
2022/03/09 10:24:03;;;;;;;16.60;11.08;;;;;;;4.04;79.98;100591.58;1662929;85;21164;-66
2022/03/09 10:26:44;;;;;;;19.42;11.40;;;;;;;4.08;80.02;100590.67;1654422;85;21021;-66
2022/03/09 10:29:18;;;;;;;20.48;12.98;;;;;;;4.19;79.92;100597.06;1655101;85;21039;-67
2022/03/09 10:31:51;;;;;;;18.67;12.95;;;;;;;4.19;79.95;100594.03;1657626;85;21036;-67
2022/03/09 10:34:25;;;;;;;18.40;13.22;;;;;;;4.18;80.16;100594.92;1649719;85;21036;-68
2022/03/09 10:37:03;;;;;;;19.50;13.55;;;;;;;4.35;80.92;100593.94;1629178;86;21794;-69
2022/03/09 10:39:34;;;;;;;;;;;;;;;4.49;80.57;100586.92;1663084;84;21037;-70
2022/03/09 10:42:03;;;;;;;26.27;14.65;;;;;;;4.51;79.39;100592.06;1652770;85;20099;-68
2022/03/09 10:44:47;;;;;;;20.68;14.93;;;;;;;4.49;80.10;100595.97;1647763;85;21103;-67
2022/03/09 10:47:36;;;;;;;21.35;15.50;;;;;;;4.54;79.86;100590.33;1661015;84;21589;-67
2022/03/09 10:50:25;;;;;;;21.07;14.30;;;;;;;4.61;80.31;100591.98;1665163;84;21155;-67
2022/03/09 10:52:59;;;;;;;20.20;12.98;;;;;;;4.76;80.17;100582.35;1618633;87;21067;-68
2022/03/09 10:55:32;;;;;;;18.62;12.58;;;;;;;4.94;80.62;100584.77;1660131;84;21016;-68
2022/03/09 10:58:20;;;;;;;16.77;11.25;;;;;;;5.02;79.86;100593.31;1652110;84;21144;-68
2022/03/09 11:00:54;;;;;;;16.70;11.12;;;;;;;5.06;79.38;100588.52;1626143;86;21029;-67
2022/03/09 11:03:25;;;;;;;17.60;11.22;;;;;;;5.09;78.30;100594.95;1667524;85;21109;-68
2022/03/09 11:05:58;;;;;;;19.67;11.55;;;;;;;5.13;79.01;100596.64;1665028;84;21016;-69
2022/03/09 11:08:30;;;;;;;20.08;11.68;;;;;;;5.24;79.38;100590.50;1640798;86;21074;-68
2022/03/09 11:11:00;;;;;;;16.45;10.72;;;;;;;5.35;79.16;100592.52;1659923;85;21024;-69
2022/03/09 11:13:30;;;;;;;24.92;11.97;;;;;;;5.45;78.84;100594.11;1647576;85;21006;-68
2022/03/09 11:15:58;;;;;;;20.20;9.40;;;;;;;5.49;78.99;100591.03;1659250;84;21460;-68
2022/03/09 11:18:26;;;;;;;;;;;;;;;5.59;79.14;100588.31;1672539;85;21626;-68
2022/03/09 11:20:55;;;;;;;16.17;9.98;;;;;;;5.72;77.55;100588.16;1620068;87;20248;-68
2022/03/09 11:23:23;;;;;;;15.38;9.70;;;;;;;5.76;78.50;100589.83;1657747;85;20983;-68